sensor_id;sensor_type;location;lat;lon;timestamp;pressure;altitude;pressure_sealevel;temperature;humidity
71465;BME280;59274;49.874;9.154;2024-01-27T00:00:21;102088.59;;;5.27;100.00
71465;BME280;59274;49.874;9.154;2024-01-27T00:02:46;102097.63;;;5.18;100.00
71465;BME280;59274;49.874;9.154;2024-01-27T00:05:12;102097.03;;;5.02;100.00
71465;BME280;59274;49.874;9.154;2024-01-27T00:07:37;102098.03;;;5.06;100.00
71465;BME280;59274;49.874;9.154;2024-01-27T00:10:03;102101.81;;;5.05;100.00
71465;BME280;59274;49.874;9.154;2024-01-27T00:12:29;102100.09;;;4.90;100.00
71465;BME280;59274;49.874;9.154;2024-01-27T00:14:54;102096.41;;;4.86;100.00
71465;BME280;59274;49.874;9.154;2024-01-27T00:17:20;102106.72;;;4.79;100.00
71465;BME280;59274;49.874;9.154;2024-01-27T00:19:53;102115.25;;;4.86;100.00
71465;BME280;59274;49.874;9.154;2024-01-27T00:22:20;102115.53;;;4.85;100.00
71465;BME280;59274;49.874;9.154;2024-01-27T00:24:48;102115.78;;;4.88;100.00
71465;BME280;59274;49.874;9.154;2024-01-27T00:27:14;102110.44;;;4.83;100.00
71465;BME280;59274;49.874;9.154;2024-01-27T00:29:39;102113.53;;;4.71;100.00
71465;BME280;59274;49.874;9.154;2024-01-27T00:32:05;102124.75;;;4.79;100.00
71465;BME280;59274;49.874;9.154;2024-01-27T00:34:30;102121.31;;;4.73;100.00
71465;BME280;59274;49.874;9.154;2024-01-27T00:36:56;102116.16;;;4.77;100.00
71465;BME280;59274;49.874;9.154;2024-01-27T00:39:22;102125.00;;;4.82;100.00
71465;BME280;59274;49.874;9.154;2024-01-27T00:41:48;102121.31;;;4.73;100.00
71465;BME280;59274;49.874;9.154;2024-01-27T00:44:13;102133.22;;;4.67;100.00
71465;BME280;59274;49.874;9.154;2024-01-27T00:46:40;102132.44;;;4.66;100.00
71465;BME280;59274;49.874;9.154;2024-01-27T00:49:05;102141.81;;;4.69;100.00
71465;BME280;59274;49.874;9.154;2024-01-27T00:51:31;102141.34;;;4.62;100.00
71465;BME280;59274;49.874;9.154;2024-01-27T00:53:57;102140.09;;;4.54;100.00
71465;BME280;59274;49.874;9.154;2024-01-27T00:56:22;102140.38;;;4.53;100.00
71465;BME280;59274;49.874;9.154;2024-01-27T00:58:48;102143.00;;;4.58;100.00
71465;BME280;59274;49.874;9.154;2024-01-27T01:01:13;102147.53;;;4.62;100.00
71465;BME280;59274;49.874;9.154;2024-01-27T01:03:39;102147.31;;;4.59;100.00
71465;BME280;59274;49.874;9.154;2024-01-27T01:06:04;102145.13;;;4.61;100.00
71465;BME280;59274;49.874;9.154;2024-01-27T01:08:31;102149.47;;;4.57;100.00
71465;BME280;59274;49.874;9.154;2024-01-27T01:10:57;102146.84;;;4.52;100.00
71465;BME280;59274;49.874;9.154;2024-01-27T01:13:22;102144.22;;;4.47;100.00
71465;BME280;59274;49.874;9.154;2024-01-27T01:15:48;102148.31;;;4.39;100.00
71465;BME280;59274;49.874;9.154;2024-01-27T01:18:13;102141.66;;;4.31;100.00
71465;BME280;59274;49.874;9.154;2024-01-27T01:20:39;102138.50;;;4.19;100.00
71465;BME280;59274;49.874;9.154;2024-01-27T01:23:05;102138.63;;;4.09;100.00
71465;BME280;59274;49.874;9.154;2024-01-27T01:25:30;102145.59;;;4.10;100.00
71465;BME280;59274;49.874;9.154;2024-01-27T01:27:57;102144.03;;;4.04;100.00
71465;BME280;59274;49.874;9.154;2024-01-27T01:30:23;102151.56;;;4.02;100.00
71465;BME280;59274;49.874;9.154;2024-01-27T01:32:49;102153.19;;;3.98;100.00
71465;BME280;59274;49.874;9.154;2024-01-27T01:35:15;102153.78;;;3.95;100.00
71465;BME280;59274;49.874;9.154;2024-01-27T01:37:41;102153.78;;;3.95;100.00
71465;BME280;59274;49.874;9.154;2024-01-27T01:40:07;102160.28;;;3.89;100.00
71465;BME280;59274;49.874;9.154;2024-01-27T01:42:33;102162.44;;;3.87;100.00
71465;BME280;59274;49.874;9.154;2024-01-27T01:44:58;102172.06;;;3.93;100.00
71465;BME280;59274;49.874;9.154;2024-01-27T01:47:25;102183.88;;;3.97;100.00
71465;BME280;59274;49.874;9.154;2024-01-27T01:49:50;102184.91;;;4.01;100.00
71465;BME280;59274;49.874;9.154;2024-01-27T01:52:21;102186.03;;;3.95;100.00
71465;BME280;59274;49.874;9.154;2024-01-27T01:54:48;102190.34;;;3.96;100.00
71465;BME280;59274;49.874;9.154;2024-01-27T01:57:14;102200.19;;;4.06;100.00
71465;BME280;59274;49.874;9.154;2024-01-27T01:59:40;102208.84;;;4.03;100.00
71465;BME280;59274;49.874;9.154;2024-01-27T02:02:08;102201.88;;;3.97;100.00
71465;BME280;59274;49.874;9.154;2024-01-27T02:04:43;102204.41;;;3.83;100.00
71465;BME280;59274;49.874;9.154;2024-01-27T02:07:09;102216.25;;;3.72;100.00
71465;BME280;59274;49.874;9.154;2024-01-27T02:09:35;102220.09;;;3.61;100.00
71465;BME280;59274;49.874;9.154;2024-01-27T02:12:01;102229.53;;;3.53;100.00
71465;BME280;59274;49.874;9.154;2024-01-27T02:14:26;102227.69;;;3.43;100.00
71465;BME280;59274;49.874;9.154;2024-01-27T02:16:53;102223.09;;;3.49;100.00
71465;BME280;59274;49.874;9.154;2024-01-27T02:19:18;102220.50;;;3.34;100.00
71465;BME280;59274;49.874;9.154;2024-01-27T02:21:46;102216.50;;;3.26;100.00
71465;BME280;59274;49.874;9.154;2024-01-27T02:24:11;102221.06;;;3.26;100.00
71465;BME280;59274;49.874;9.154;2024-01-27T02:26:37;102216.28;;;3.02;100.00
71465;BME280;59274;49.874;9.154;2024-01-27T02:29:02;102225.13;;;3.08;100.00
71465;BME280;59274;49.874;9.154;2024-01-27T02:31:28;102216.31;;;2.87;100.00
71465;BME280;59274;49.874;9.154;2024-01-27T02:33:53;102210.16;;;2.71;100.00
71465;BME280;59274;49.874;9.154;2024-01-27T02:36:19;102211.81;;;2.62;100.00
71465;BME280;59274;49.874;9.154;2024-01-27T02:38:44;102217.41;;;2.66;100.00
71465;BME280;59274;49.874;9.154;2024-01-27T02:41:10;102213.66;;;2.52;100.00
71465;BME280;59274;49.874;9.154;2024-01-27T02:43:36;102212.88;;;2.46;100.00
71465;BME280;59274;49.874;9.154;2024-01-27T02:46:02;102218.22;;;2.36;100.00
71465;BME280;59274;49.874;9.154;2024-01-27T02:48:27;102226.53;;;2.24;100.00
71465;BME280;59274;49.874;9.154;2024-01-27T02:50:53;102227.06;;;2.21;100.00
71465;BME280;59274;49.874;9.154;2024-01-27T02:53:18;102222.75;;;2.20;100.00
71465;BME280;59274;49.874;9.154;2024-01-27T02:55:44;102225.72;;;2.14;100.00
71465;BME280;59274;49.874;9.154;2024-01-27T02:58:10;102221.97;;;2.05;100.00
71465;BME280;59274;49.874;9.154;2024-01-27T03:00:35;102210.97;;;1.91;100.00
71465;BME280;59274;49.874;9.154;2024-01-27T03:03:01;102217.13;;;1.91;100.00
71465;BME280;59274;49.874;9.154;2024-01-27T03:05:26;102215.50;;;1.95;100.00
71465;BME280;59274;49.874;9.154;2024-01-27T03:07:52;102213.91;;;1.84;100.00
71465;BME280;59274;49.874;9.154;2024-01-27T03:10:17;102214.41;;;1.76;100.00
71465;BME280;59274;49.874;9.154;2024-01-27T03:12:43;102210.63;;;1.72;100.00
71465;BME280;59274;49.874;9.154;2024-01-27T03:15:08;102212.25;;;1.73;100.00
71465;BME280;59274;49.874;9.154;2024-01-27T03:17:34;102217.06;;;1.71;100.00
71465;BME280;59274;49.874;9.154;2024-01-27T03:19:59;102218.09;;;1.65;100.00
71465;BME280;59274;49.874;9.154;2024-01-27T03:22:25;102224.81;;;1.68;100.00
71465;BME280;59274;49.874;9.154;2024-01-27T03:24:50;102223.47;;;1.60;100.00
71465;BME280;59274;49.874;9.154;2024-01-27T03:27:17;102225.06;;;1.56;100.00
71465;BME280;59274;49.874;9.154;2024-01-27T03:29:42;102222.63;;;1.54;100.00
71465;BME280;59274;49.874;9.154;2024-01-27T03:32:12;102222.59;;;1.44;100.00
71465;BME280;59274;49.874;9.154;2024-01-27T03:34:43;102216.41;;;1.39;100.00
71465;BME280;59274;49.874;9.154;2024-01-27T03:37:13;102212.66;;;1.35;100.00
71465;BME280;59274;49.874;9.154;2024-01-27T03:39:41;102218.78;;;1.25;100.00
71465;BME280;59274;49.874;9.154;2024-01-27T03:42:07;102229.16;;;1.22;100.00
71465;BME280;59274;49.874;9.154;2024-01-27T03:44:33;102222.41;;;1.04;100.00
71465;BME280;59274;49.874;9.154;2024-01-27T03:46:59;102217.59;;;1.06;100.00
71465;BME280;59274;49.874;9.154;2024-01-27T03:49:24;102229.63;;;1.03;100.00
71465;BME280;59274;49.874;9.154;2024-01-27T03:51:50;102232.06;;;1.10;100.00
71465;BME280;59274;49.874;9.154;2024-01-27T03:54:15;102229.13;;;1.11;100.00
71465;BME280;59274;49.874;9.154;2024-01-27T03:56:41;102233.13;;;1.09;100.00
71465;BME280;59274;49.874;9.154;2024-01-27T03:59:07;102231.78;;;1.06;100.00
71465;BME280;59274;49.874;9.154;2024-01-27T04:01:34;102237.63;;;0.98;100.00
71465;BME280;59274;49.874;9.154;2024-01-27T04:04:00;102239.19;;;0.94;100.00
71465;BME280;59274;49.874;9.154;2024-01-27T04:06:25;102231.13;;;0.84;100.00
71465;BME280;59274;49.874;9.154;2024-01-27T04:08:51;102226.53;;;0.79;100.00
71465;BME280;59274;49.874;9.154;2024-01-27T04:11:21;102227.31;;;0.75;100.00
71465;BME280;59274;49.874;9.154;2024-01-27T04:13:48;102232.41;;;0.76;100.00
71465;BME280;59274;49.874;9.154;2024-01-27T04:16:14;102236.72;;;0.83;100.00
71465;BME280;59274;49.874;9.154;2024-01-27T04:18:39;102235.41;;;0.85;100.00
71465;BME280;59274;49.874;9.154;2024-01-27T04:21:05;102236.13;;;0.75;100.00
71465;BME280;59274;49.874;9.154;2024-01-27T04:23:30;102240.44;;;0.82;100.00
71465;BME280;59274;49.874;9.154;2024-01-27T04:25:56;102238.56;;;0.77;100.00
71465;BME280;59274;49.874;9.154;2024-01-27T04:28:21;102245.53;;;0.83;100.00
71465;BME280;59274;49.874;9.154;2024-01-27T04:30:47;102243.91;;;0.77;100.00
71465;BME280;59274;49.874;9.154;2024-01-27T04:33:12;102250.06;;;0.77;100.00
71465;BME280;59274;49.874;9.154;2024-01-27T04:35:38;102248.44;;;0.76;100.00
71465;BME280;59274;49.874;9.154;2024-01-27T04:38:03;102247.88;;;0.74;100.00
71465;BME280;59274;49.874;9.154;2024-01-27T04:40:29;102250.06;;;0.77;100.00
71465;BME280;59274;49.874;9.154;2024-01-27T04:42:55;102248.34;;;0.66;100.00
71465;BME280;59274;49.874;9.154;2024-01-27T04:45:20;102253.44;;;0.68;100.00
71465;BME280;59274;49.874;9.154;2024-01-27T04:47:46;102270.06;;;0.70;100.00
71465;BME280;59274;49.874;9.154;2024-01-27T04:50:11;102267.63;;;0.68;100.00
71465;BME280;59274;49.874;9.154;2024-01-27T04:52:37;102265.72;;;0.64;100.00
71465;BME280;59274;49.874;9.154;2024-01-27T04:55:03;102275.09;;;0.66;100.00
71465;BME280;59274;49.874;9.154;2024-01-27T04:57:28;102274.53;;;0.64;100.00
71465;BME280;59274;49.874;9.154;2024-01-27T04:59:54;102273.41;;;0.55;100.00
71465;BME280;59274;49.874;9.154;2024-01-27T05:02:19;102267.81;;;0.57;100.00
71465;BME280;59274;49.874;9.154;2024-01-27T05:04:45;102275.84;;;0.57;100.00
71465;BME280;59274;49.874;9.154;2024-01-27T05:07:10;102270.53;;;0.62;100.00
71465;BME280;59274;49.874;9.154;2024-01-27T05:09:35;102281.34;;;0.50;100.00
71465;BME280;59274;49.874;9.154;2024-01-27T05:12:01;102275.47;;;0.48;100.00
71465;BME280;59274;49.874;9.154;2024-01-27T05:14:27;102293.38;;;0.48;100.00
71465;BME280;59274;49.874;9.154;2024-01-27T05:16:53;102291.22;;;0.45;100.00
71465;BME280;59274;49.874;9.154;2024-01-27T05:19:18;102293.19;;;0.27;100.00
71465;BME280;59274;49.874;9.154;2024-01-27T05:21:44;102297.00;;;0.36;100.00
71465;BME280;59274;49.874;9.154;2024-01-27T05:24:09;102298.88;;;0.36;100.00
71465;BME280;59274;49.874;9.154;2024-01-27T05:26:35;102297.72;;;0.27;100.00
71465;BME280;59274;49.874;9.154;2024-01-27T05:29:00;102295.34;;;0.30;100.00
71465;BME280;59274;49.874;9.154;2024-01-27T05:31:26;102295.75;;;0.17;100.00
71465;BME280;59274;49.874;9.154;2024-01-27T05:33:52;102291.47;;;0.16;100.00
71465;BME280;59274;49.874;9.154;2024-01-27T05:36:17;102290.75;;;-0.01;100.00
71465;BME280;59274;49.874;9.154;2024-01-27T05:38:43;102290.56;;;0.06;100.00
71465;BME280;59274;49.874;9.154;2024-01-27T05:41:08;102309.47;;;-0.01;100.00
71465;BME280;59274;49.874;9.154;2024-01-27T05:43:33;102306.22;;;-0.03;100.00
71465;BME280;59274;49.874;9.154;2024-01-27T05:45:59;102313.44;;;-0.04;100.00
71465;BME280;59274;49.874;9.154;2024-01-27T05:48:24;102311.56;;;-0.03;100.00
71465;BME280;59274;49.874;9.154;2024-01-27T05:51:00;102312.63;;;-0.04;100.00
71465;BME280;59274;49.874;9.154;2024-01-27T05:53:26;102314.22;;;-0.03;100.00
71465;BME280;59274;49.874;9.154;2024-01-27T05:55:52;102303.22;;;-0.07;100.00
71465;BME280;59274;49.874;9.154;2024-01-27T05:58:19;102308.56;;;-0.07;100.00
71465;BME280;59274;49.874;9.154;2024-01-27T06:00:48;102311.06;;;0.00;100.00
71465;BME280;59274;49.874;9.154;2024-01-27T06:03:14;102315.28;;;-0.04;100.00
71465;BME280;59274;49.874;9.154;2024-01-27T06:05:41;102323.63;;;-0.01;100.00
71465;BME280;59274;49.874;9.154;2024-01-27T06:08:07;102327.81;;;-0.05;100.00
71465;BME280;59274;49.874;9.154;2024-01-27T06:10:33;102329.94;;;-0.07;100.00
71465;BME280;59274;49.874;9.154;2024-01-27T06:12:59;102321.38;;;-0.09;100.00
71465;BME280;59274;49.874;9.154;2024-01-27T06:15:24;102333.97;;;-0.04;100.00
71465;BME280;59274;49.874;9.154;2024-01-27T06:17:50;102326.34;;;-0.17;100.00
71465;BME280;59274;49.874;9.154;2024-01-27T06:20:15;102321.91;;;-0.28;100.00
71465;BME280;59274;49.874;9.154;2024-01-27T06:22:42;102327.78;;;-0.31;100.00
71465;BME280;59274;49.874;9.154;2024-01-27T06:25:08;102321.44;;;-0.25;100.00
71465;BME280;59274;49.874;9.154;2024-01-27T06:27:34;102323.47;;;-0.32;100.00
71465;BME280;59274;49.874;9.154;2024-01-27T06:29:59;102326.72;;;-0.30;100.00
71465;BME280;59274;49.874;9.154;2024-01-27T06:32:24;102324.28;;;-0.32;100.00
71465;BME280;59274;49.874;9.154;2024-01-27T06:34:50;102331.00;;;-0.29;100.00
71465;BME280;59274;49.874;9.154;2024-01-27T06:37:15;102334.97;;;-0.32;100.00
71465;BME280;59274;49.874;9.154;2024-01-27T06:39:41;102336.34;;;-0.29;100.00
71465;BME280;59274;49.874;9.154;2024-01-27T06:42:06;102344.09;;;-0.28;100.00
71465;BME280;59274;49.874;9.154;2024-01-27T06:44:32;102341.69;;;-0.29;100.00
71465;BME280;59274;49.874;9.154;2024-01-27T06:46:57;102338.13;;;-0.35;100.00
71465;BME280;59274;49.874;9.154;2024-01-27T06:49:23;102341.88;;;-0.36;100.00
71465;BME280;59274;49.874;9.154;2024-01-27T06:51:48;102345.59;;;-0.37;100.00
71465;BME280;59274;49.874;9.154;2024-01-27T06:54:13;102343.72;;;-0.36;100.00
71465;BME280;59274;49.874;9.154;2024-01-27T06:56:39;102352.16;;;-0.45;100.00
71465;BME280;59274;49.874;9.154;2024-01-27T06:59:04;102361.84;;;-0.38;100.00
71465;BME280;59274;49.874;9.154;2024-01-27T07:01:30;102364.44;;;-0.44;100.00
71465;BME280;59274;49.874;9.154;2024-01-27T07:03:55;102362.75;;;-0.50;100.00
71465;BME280;59274;49.874;9.154;2024-01-27T07:06:20;102378.69;;;-0.55;100.00
71465;BME280;59274;49.874;9.154;2024-01-27T07:08:46;102366.47;;;-0.51;100.00
71465;BME280;59274;49.874;9.154;2024-01-27T07:11:11;102363.72;;;-0.56;100.00
71465;BME280;59274;49.874;9.154;2024-01-27T07:13:37;102366.31;;;-0.61;100.00
71465;BME280;59274;49.874;9.154;2024-01-27T07:16:03;102368.50;;;-0.58;100.00
71465;BME280;59274;49.874;9.154;2024-01-27T07:18:28;102372.22;;;-0.59;100.00
71465;BME280;59274;49.874;9.154;2024-01-27T07:20:54;102371.25;;;-0.53;100.00
71465;BME280;59274;49.874;9.154;2024-01-27T07:23:20;102365.91;;;-0.53;100.00
71465;BME280;59274;49.874;9.154;2024-01-27T07:25:45;102369.22;;;-0.46;100.00
71465;BME280;59274;49.874;9.154;2024-01-27T07:28:11;102367.75;;;-0.36;100.00
71465;BME280;59274;49.874;9.154;2024-01-27T07:30:37;102373.09;;;-0.36;100.00
71465;BME280;59274;49.874;9.154;2024-01-27T07:33:03;102362.94;;;-0.34;100.00
71465;BME280;59274;49.874;9.154;2024-01-27T07:35:29;102363.53;;;-0.32;100.00
71465;BME280;59274;49.874;9.154;2024-01-27T07:37:57;102366.00;;;-0.26;100.00
71465;BME280;59274;49.874;9.154;2024-01-27T07:40:22;102365.53;;;-0.23;100.00
71465;BME280;59274;49.874;9.154;2024-01-27T07:42:47;102363.59;;;-0.27;100.00
71465;BME280;59274;49.874;9.154;2024-01-27T07:45:13;102364.97;;;-0.25;100.00
71465;BME280;59274;49.874;9.154;2024-01-27T07:47:38;102369.63;;;-0.15;100.00
71465;BME280;59274;49.874;9.154;2024-01-27T07:50:04;102368.31;;;-0.13;100.00
71465;BME280;59274;49.874;9.154;2024-01-27T07:52:30;102368.69;;;-0.04;100.00
71465;BME280;59274;49.874;9.154;2024-01-27T07:54:55;102371.19;;;0.03;100.00
71465;BME280;59274;49.874;9.154;2024-01-27T07:57:20;102374.16;;;0.06;100.00
71465;BME280;59274;49.874;9.154;2024-01-27T07:59:46;102387.00;;;0.09;100.00
71465;BME280;59274;49.874;9.154;2024-01-27T08:02:11;102379.31;;;0.13;100.00
71465;BME280;59274;49.874;9.154;2024-01-27T08:04:38;102387.16;;;0.19;100.00
71465;BME280;59274;49.874;9.154;2024-01-27T08:07:03;102389.31;;;0.22;100.00
71465;BME280;59274;49.874;9.154;2024-01-27T08:09:34;102393.53;;;0.18;100.00
71465;BME280;59274;49.874;9.154;2024-01-27T08:12:00;102397.50;;;0.37;100.00
71465;BME280;59274;49.874;9.154;2024-01-27T08:14:29;102398.19;;;0.50;100.00
71465;BME280;59274;49.874;9.154;2024-01-27T08:16:55;102396.03;;;0.52;100.00
71465;BME280;59274;49.874;9.154;2024-01-27T08:19:21;102396.66;;;0.59;100.00
71465;BME280;59274;49.874;9.154;2024-01-27T08:21:47;102391.63;;;0.62;100.00
71465;BME280;59274;49.874;9.154;2024-01-27T08:24:13;102386.69;;;0.76;100.00
71465;BME280;59274;49.874;9.154;2024-01-27T08:26:39;102389.94;;;0.83;100.00
71465;BME280;59274;49.874;9.154;2024-01-27T08:29:04;102397.75;;;0.90;100.00
71465;BME280;59274;49.874;9.154;2024-01-27T08:31:30;102401.28;;;0.95;100.00
71465;BME280;59274;49.874;9.154;2024-01-27T08:33:55;102404.56;;;1.02;100.00
71465;BME280;59274;49.874;9.154;2024-01-27T08:36:21;102405.16;;;1.09;100.00
71465;BME280;59274;49.874;9.154;2024-01-27T08:38:46;102407.06;;;1.14;100.00
71465;BME280;59274;49.874;9.154;2024-01-27T08:41:12;102400.50;;;1.27;100.00
71465;BME280;59274;49.874;9.154;2024-01-27T08:43:37;102401.91;;;1.39;100.00
71465;BME280;59274;49.874;9.154;2024-01-27T08:46:03;102406.78;;;1.47;100.00
71465;BME280;59274;49.874;9.154;2024-01-27T08:48:28;102403.59;;;1.50;100.00
71465;BME280;59274;49.874;9.154;2024-01-27T08:50:54;102417.63;;;1.63;100.00
71465;BME280;59274;49.874;9.154;2024-01-27T08:53:19;102413.84;;;1.64;100.00
71465;BME280;59274;49.874;9.154;2024-01-27T08:55:44;102415.28;;;1.76;100.00
71465;BME280;59274;49.874;9.154;2024-01-27T08:58:10;102409.88;;;1.71;100.00
71465;BME280;59274;49.874;9.154;2024-01-27T09:00:35;102407.53;;;1.80;100.00
71465;BME280;59274;49.874;9.154;2024-01-27T09:03:01;102406.78;;;1.94;100.00
71465;BME280;59274;49.874;9.154;2024-01-27T09:05:26;102412.97;;;1.95;100.00
71465;BME280;59274;49.874;9.154;2024-01-27T09:07:53;102414.34;;;2.03;100.00
71465;BME280;59274;49.874;9.154;2024-01-27T09:10:18;102421.34;;;2.09;100.00
71465;BME280;59274;49.874;9.154;2024-01-27T09:12:44;102424.06;;;2.19;100.00
71465;BME280;59274;49.874;9.154;2024-01-27T09:15:10;102428.63;;;2.23;100.00
71465;BME280;59274;49.874;9.154;2024-01-27T09:17:35;102434.25;;;2.22;100.00
71465;BME280;59274;49.874;9.154;2024-01-27T09:20:01;102434.56;;;2.25;100.00
71465;BME280;59274;49.874;9.154;2024-01-27T09:22:26;102424.09;;;2.29;100.00
71465;BME280;59274;49.874;9.154;2024-01-27T09:24:52;102423.88;;;2.41;100.00
71465;BME280;59274;49.874;9.154;2024-01-27T09:27:18;102426.81;;;2.39;100.00
71465;BME280;59274;49.874;9.154;2024-01-27T09:29:43;102431.41;;;2.49;100.00
71465;BME280;59274;49.874;9.154;2024-01-27T09:32:09;102428.50;;;2.55;100.00
71465;BME280;59274;49.874;9.154;2024-01-27T09:34:34;102434.63;;;2.51;100.00
71465;BME280;59274;49.874;9.154;2024-01-27T09:37:01;102437.88;;;2.58;100.00
71465;BME280;59274;49.874;9.154;2024-01-27T09:39:26;102431.75;;;2.72;100.00
71465;BME280;59274;49.874;9.154;2024-01-27T09:41:53;102435.22;;;2.73;100.00
71465;BME280;59274;49.874;9.154;2024-01-27T09:44:19;102436.34;;;2.82;100.00
71465;BME280;59274;49.874;9.154;2024-01-27T09:46:46;102445.72;;;2.85;100.00
71465;BME280;59274;49.874;9.154;2024-01-27T09:49:13;102446.53;;;2.95;100.00
71465;BME280;59274;49.874;9.154;2024-01-27T09:51:41;102441.19;;;2.95;100.00
71465;BME280;59274;49.874;9.154;2024-01-27T09:54:06;102447.09;;;2.97;100.00
71465;BME280;59274;49.874;9.154;2024-01-27T09:56:32;102449.50;;;3.14;100.00
71465;BME280;59274;49.874;9.154;2024-01-27T09:58:59;102445.22;;;3.18;100.00
71465;BME280;59274;49.874;9.154;2024-01-27T10:01:26;102440.66;;;3.24;100.00
71465;BME280;59274;49.874;9.154;2024-01-27T10:03:54;102447.91;;;3.28;100.00
71465;BME280;59274;49.874;9.154;2024-01-27T10:06:20;102455.16;;;3.43;100.00
71465;BME280;59274;49.874;9.154;2024-01-27T10:08:53;102451.94;;;3.46;100.00
71465;BME280;59274;49.874;9.154;2024-01-27T10:11:20;102458.13;;;3.46;100.00
71465;BME280;59274;49.874;9.154;2024-01-27T10:13:45;102449.78;;;3.53;100.00
71465;BME280;59274;49.874;9.154;2024-01-27T10:16:18;102454.34;;;3.58;100.00
71465;BME280;59274;49.874;9.154;2024-01-27T10:18:44;102444.94;;;3.65;100.00
71465;BME280;59274;49.874;9.154;2024-01-27T10:21:13;102461.31;;;3.74;100.00
71465;BME280;59274;49.874;9.154;2024-01-27T10:23:39;102450.56;;;3.79;100.00
71465;BME280;59274;49.874;9.154;2024-01-27T10:26:05;102453.22;;;3.89;100.00
71465;BME280;59274;49.874;9.154;2024-01-27T10:28:30;102452.66;;;3.92;100.00
71465;BME280;59274;49.874;9.154;2024-01-27T10:31:08;102452.13;;;4.00;100.00
71465;BME280;59274;49.874;9.154;2024-01-27T10:33:33;102449.94;;;4.07;100.00
71465;BME280;59274;49.874;9.154;2024-01-27T10:36:02;102444.81;;;4.16;100.00
71465;BME280;59274;49.874;9.154;2024-01-27T10:38:38;102443.41;;;4.28;100.00
71465;BME280;59274;49.874;9.154;2024-01-27T10:41:07;102443.91;;;4.36;100.00
71465;BME280;59274;49.874;9.154;2024-01-27T10:43:35;102445.81;;;4.35;100.00
71465;BME280;59274;49.874;9.154;2024-01-27T10:46:05;102439.63;;;4.40;100.00
71465;BME280;59274;49.874;9.154;2024-01-27T10:48:32;102445.50;;;4.42;100.00
71465;BME280;59274;49.874;9.154;2024-01-27T10:51:07;102440.63;;;4.54;100.00
71465;BME280;59274;49.874;9.154;2024-01-27T10:53:33;102441.66;;;4.58;100.00
71465;BME280;59274;49.874;9.154;2024-01-27T10:56:01;102429.00;;;4.63;100.00
71465;BME280;59274;49.874;9.154;2024-01-27T10:58:30;102430.25;;;4.76;100.00
71465;BME280;59274;49.874;9.154;2024-01-27T11:00:56;102427.00;;;4.79;100.00
71465;BME280;59274;49.874;9.154;2024-01-27T11:03:24;102418.84;;;4.94;100.00
71465;BME280;59274;49.874;9.154;2024-01-27T11:05:52;102410.75;;;4.94;100.00
71465;BME280;59274;49.874;9.154;2024-01-27T11:08:18;102407.22;;;4.99;100.00
71465;BME280;59274;49.874;9.154;2024-01-27T11:10:44;102400.00;;;4.94;100.00
71465;BME280;59274;49.874;9.154;2024-01-27T11:13:10;102385.94;;;4.97;100.00
71465;BME280;59274;49.874;9.154;2024-01-27T11:15:36;102384.31;;;5.01;100.00
71465;BME280;59274;49.874;9.154;2024-01-27T11:18:01;102381.78;;;5.15;100.00
71465;BME280;59274;49.874;9.154;2024-01-27T11:20:32;102372.69;;;5.11;100.00
71465;BME280;59274;49.874;9.154;2024-01-27T11:23:14;102370.41;;;5.23;100.00
71465;BME280;59274;49.874;9.154;2024-01-27T11:25:40;102370.63;;;5.27;100.00
71465;BME280;59274;49.874;9.154;2024-01-27T11:28:16;102367.84;;;5.37;100.00
71465;BME280;59274;49.874;9.154;2024-01-27T11:30:48;102356.22;;;5.41;100.00
71465;BME280;59274;49.874;9.154;2024-01-27T11:33:14;102363.13;;;5.53;100.00
71465;BME280;59274;49.874;9.154;2024-01-27T11:35:40;102366.00;;;5.61;100.00
71465;BME280;59274;49.874;9.154;2024-01-27T11:38:05;102361.00;;;5.73;100.00
71465;BME280;59274;49.874;9.154;2024-01-27T11:40:31;102356.88;;;5.81;100.00
71465;BME280;59274;49.874;9.154;2024-01-27T11:42:57;102356.75;;;5.91;100.00
71465;BME280;59274;49.874;9.154;2024-01-27T11:45:23;102355.41;;;5.94;100.00
71465;BME280;59274;49.874;9.154;2024-01-27T11:47:49;102358.09;;;5.94;100.00
71465;BME280;59274;49.874;9.154;2024-01-27T11:50:18;102360.72;;;5.99;100.00
71465;BME280;59274;49.874;9.154;2024-01-27T11:52:44;102369.72;;;6.13;100.00
71465;BME280;59274;49.874;9.154;2024-01-27T11:55:10;102373.94;;;6.19;100.00
71465;BME280;59274;49.874;9.154;2024-01-27T11:57:35;102379.16;;;6.34;100.00
71465;BME280;59274;49.874;9.154;2024-01-27T12:00:01;102366.09;;;6.41;100.00
71465;BME280;59274;49.874;9.154;2024-01-27T12:02:26;102364.88;;;6.52;100.00
71465;BME280;59274;49.874;9.154;2024-01-27T12:04:52;102367.94;;;6.46;100.00
71465;BME280;59274;49.874;9.154;2024-01-27T12:07:18;102373.69;;;6.58;100.00
71465;BME280;59274;49.874;9.154;2024-01-27T12:09:48;102369.81;;;6.64;100.00
71465;BME280;59274;49.874;9.154;2024-01-27T12:12:13;102359.25;;;6.67;100.00
71465;BME280;59274;49.874;9.154;2024-01-27T12:14:45;102371.16;;;6.66;100.00
71465;BME280;59274;49.874;9.154;2024-01-27T12:17:11;102377.09;;;6.82;100.00
71465;BME280;59274;49.874;9.154;2024-01-27T12:19:37;102383.81;;;6.85;100.00
71465;BME280;59274;49.874;9.154;2024-01-27T12:22:03;102387.97;;;6.96;100.00
71465;BME280;59274;49.874;9.154;2024-01-27T12:24:29;102388.47;;;6.98;100.00
71465;BME280;59274;49.874;9.154;2024-01-27T12:26:56;102378.59;;;7.07;100.00
71465;BME280;59274;49.874;9.154;2024-01-27T12:29:24;102387.13;;;7.14;100.00
71465;BME280;59274;49.874;9.154;2024-01-27T12:31:50;102392.44;;;7.19;100.00
71465;BME280;59274;49.874;9.154;2024-01-27T12:34:15;102384.31;;;7.19;100.00
71465;BME280;59274;49.874;9.154;2024-01-27T12:36:42;102406.03;;;7.14;100.00
71465;BME280;59274;49.874;9.154;2024-01-27T12:39:08;102398.81;;;7.10;100.00
71465;BME280;59274;49.874;9.154;2024-01-27T12:41:34;102397.41;;;7.12;100.00